createdAt,value
2023-02-13T00:00:54.717Z,-1.40
2023-02-13T00:03:22.088Z,-1.40
2023-02-13T00:05:49.287Z,-1.40
2023-02-13T00:08:16.596Z,-1.40
2023-02-13T00:10:43.695Z,-1.50
2023-02-13T00:13:10.903Z,-2.00
2023-02-13T00:15:38.245Z,-2.00
2023-02-13T00:18:06.116Z,-1.10
2023-02-13T00:20:33.348Z,-1.60
2023-02-13T00:23:00.691Z,-1.50
2023-02-13T00:25:28.782Z,-1.50
2023-02-13T00:27:56.046Z,-1.50
2023-02-13T00:30:23.542Z,-1.50
2023-02-13T00:32:50.758Z,-1.60
2023-02-13T00:35:18.339Z,-0.50
2023-02-13T00:37:45.502Z,-1.50
2023-02-13T00:40:13.377Z,-1.50
2023-02-13T00:42:40.564Z,-1.40
2023-02-13T00:45:08.487Z,-1.50
2023-02-13T00:47:35.739Z,-1.50
2023-02-13T00:50:02.993Z,-1.40
2023-02-13T00:52:30.139Z,-1.40
2023-02-13T00:54:57.364Z,-1.50
2023-02-13T00:57:24.581Z,-1.50
2023-02-13T00:59:51.907Z,-1.70
2023-02-13T01:02:19.074Z,-1.70
2023-02-13T01:04:46.304Z,-1.80
2023-02-13T01:07:34.750Z,-1.70
2023-02-13T01:10:02.120Z,-1.70
2023-02-13T01:12:29.468Z,-2.10
2023-02-13T01:14:56.713Z,-1.90
2023-02-13T01:17:23.984Z,-1.70
2023-02-13T01:19:51.242Z,-0.90
2023-02-13T01:22:18.525Z,-2.00
2023-02-13T01:24:45.840Z,-1.90
2023-02-13T01:27:13.069Z,-1.40
2023-02-13T01:29:40.243Z,-2.40
2023-02-13T01:32:07.571Z,-2.30
2023-02-13T01:34:34.792Z,-2.60
2023-02-13T01:37:01.974Z,-2.10
2023-02-13T01:39:31.633Z,-2.10
2023-02-13T01:41:59.617Z,-2.10
2023-02-13T01:44:50.938Z,-2.30
2023-02-13T01:47:45.360Z,-2.00
2023-02-13T01:50:12.617Z,-2.10
2023-02-13T01:52:47.620Z,-1.90
2023-02-13T01:55:16.634Z,-2.00
2023-02-13T01:57:50.777Z,-2.10
2023-02-13T02:00:18.719Z,-2.10
2023-02-13T02:03:13.380Z,-2.10
2023-02-13T02:05:40.904Z,-2.00
2023-02-13T02:08:13.138Z,-2.10
2023-02-13T02:10:41.185Z,-1.70
2023-02-13T02:13:14.268Z,-2.30
2023-02-13T02:15:43.296Z,-2.30
2023-02-13T02:18:18.516Z,-2.30
2023-02-13T02:21:09.942Z,-2.30
2023-02-13T02:24:17.640Z,-2.00
2023-02-13T02:27:22.342Z,-2.30
2023-02-13T02:30:26.408Z,-2.30
2023-02-13T02:33:04.711Z,-2.10
2023-02-13T02:36:02.289Z,-2.00
2023-02-13T02:39:06.693Z,-2.20
2023-02-13T02:41:57.789Z,-2.50
2023-02-13T02:44:45.916Z,-2.60
2023-02-13T02:47:56.241Z,-2.20
2023-02-13T02:50:52.615Z,-2.50
2023-02-13T02:53:49.166Z,-2.10
2023-02-13T02:56:30.765Z,-2.30
2023-02-13T02:59:34.463Z,-2.20
2023-02-13T03:02:22.528Z,-2.70
2023-02-13T03:05:16.529Z,-2.70
2023-02-13T03:07:44.439Z,-2.90
2023-02-13T03:10:40.878Z,-3.20
2023-02-13T03:13:28.925Z,-3.00
2023-02-13T03:16:19.485Z,-3.10
2023-02-13T03:19:16.525Z,-2.80
2023-02-13T03:22:38.117Z,-1.50
2023-02-13T03:25:36.042Z,-2.80
2023-02-13T03:28:50.972Z,-2.80
2023-02-13T03:31:42.461Z,-2.80
2023-02-13T03:34:16.898Z,-3.00
2023-02-13T03:37:23.060Z,-2.90
2023-02-13T03:40:13.065Z,-2.70
2023-02-13T03:43:17.549Z,-2.90
2023-02-13T03:45:57.299Z,-2.90
2023-02-13T03:48:54.972Z,-1.50
2023-02-13T03:51:41.456Z,-3.00
2023-02-13T03:54:59.242Z,-3.10
2023-02-13T03:57:50.674Z,-2.90
2023-02-13T04:00:20.973Z,-2.90
2023-02-13T04:03:16.969Z,-2.90
2023-02-13T04:05:56.627Z,-2.70
2023-02-13T04:08:23.964Z,-2.90
2023-02-13T04:11:15.179Z,-2.90
2023-02-13T04:14:00.576Z,-3.10
2023-02-13T04:16:43.864Z,-3.20
2023-02-13T04:19:12.306Z,-3.30
2023-02-13T04:21:40.761Z,-3.20
2023-02-13T04:24:09.784Z,-3.20
2023-02-13T04:26:47.059Z,-3.20
2023-02-13T04:29:14.397Z,-3.20
2023-02-13T04:31:41.877Z,-2.20
2023-02-13T04:34:11.611Z,-2.30
2023-02-13T04:36:38.755Z,-2.20
2023-02-13T04:39:06.035Z,-3.30
2023-02-13T04:41:33.398Z,-2.30
2023-02-13T04:44:00.683Z,-3.30
2023-02-13T04:46:28.082Z,-3.50
2023-02-13T04:48:55.372Z,-3.20
2023-02-13T04:51:22.651Z,-2.10
2023-02-13T04:53:49.744Z,-3.10
2023-02-13T04:56:18.043Z,-3.20
2023-02-13T04:58:46.866Z,-3.20
2023-02-13T05:01:16.851Z,-3.10
2023-02-13T05:03:44.137Z,-3.20
2023-02-13T05:06:11.340Z,-3.50
2023-02-13T05:08:38.746Z,-2.80
2023-02-13T05:11:06.104Z,-3.20
2023-02-13T05:13:36.905Z,-2.30
2023-02-13T05:16:04.512Z,-3.60
2023-02-13T05:18:31.811Z,-3.10
2023-02-13T05:21:18.000Z,-3.50
2023-02-13T05:23:45.213Z,-3.50
2023-02-13T05:26:12.456Z,-3.40
2023-02-13T05:28:58.486Z,-3.50
2023-02-13T05:31:26.097Z,-3.60
2023-02-13T05:33:53.433Z,-2.40
2023-02-13T05:36:21.160Z,-3.60
2023-02-13T05:38:48.435Z,-3.50
2023-02-13T05:41:18.084Z,-3.60
2023-02-13T05:43:45.342Z,-3.50
2023-02-13T05:46:13.016Z,-2.80
2023-02-13T05:48:40.348Z,-3.50
2023-02-13T05:51:08.725Z,-4.00
2023-02-13T05:53:37.425Z,-3.80
2023-02-13T05:56:06.891Z,-3.50
2023-02-13T05:58:35.490Z,-3.70
2023-02-13T06:01:04.156Z,-3.80
2023-02-13T06:03:32.755Z,-3.60
2023-02-13T06:06:02.857Z,-3.60
2023-02-13T06:08:30.312Z,-3.60
2023-02-13T06:11:00.131Z,-3.60
2023-02-13T06:13:29.101Z,-3.20
2023-02-13T06:15:56.777Z,-3.30
2023-02-13T06:18:24.744Z,-3.10
2023-02-13T06:20:52.203Z,-3.20
2023-02-13T06:23:19.855Z,-3.10
2023-02-13T06:25:48.136Z,-3.20
2023-02-13T06:28:15.439Z,-3.20
2023-02-13T06:30:42.813Z,-3.30
2023-02-13T06:33:10.093Z,-3.00
2023-02-13T06:35:37.439Z,-3.00
2023-02-13T06:38:04.681Z,-2.90
2023-02-13T06:40:32.153Z,-2.70
2023-02-13T06:42:59.830Z,-2.70
2023-02-13T06:45:27.128Z,-2.50
2023-02-13T06:47:57.549Z,-2.70
2023-02-13T06:50:27.289Z,-2.70
2023-02-13T06:52:54.660Z,-2.40
2023-02-13T06:55:22.300Z,-2.20
2023-02-13T06:57:50.067Z,-2.10
2023-02-13T07:00:19.546Z,-1.70
2023-02-13T07:02:48.086Z,-2.00
2023-02-13T07:05:15.936Z,-1.90
2023-02-13T07:07:43.625Z,-1.80
2023-02-13T07:10:16.375Z,-1.50
2023-02-13T07:13:03.708Z,-0.90
2023-02-13T07:15:34.213Z,-0.70
2023-02-13T07:18:02.143Z,-0.70
2023-02-13T07:20:29.538Z,-0.50
2023-02-13T07:23:02.501Z,-0.50
2023-02-13T07:25:30.818Z,0.00
2023-02-13T07:28:07.581Z,0.10
2023-02-13T07:30:35.917Z,-1.00
2023-02-13T07:33:04.874Z,-0.60
2023-02-13T07:35:33.116Z,-0.50
2023-02-13T07:38:00.961Z,-0.40
2023-02-13T07:40:28.699Z,-0.30
2023-02-13T07:42:56.969Z,0.10
2023-02-13T07:45:24.594Z,-0.30
2023-02-13T07:47:51.838Z,0.00
2023-02-13T07:50:19.184Z,0.00
2023-02-13T07:52:58.182Z,-0.40
2023-02-13T07:55:26.760Z,-0.20
2023-02-13T07:57:56.112Z,0.10
2023-02-13T08:00:23.802Z,0.20
2023-02-13T08:02:51.086Z,0.50
2023-02-13T08:05:18.628Z,1.70
2023-02-13T08:07:45.865Z,1.60
2023-02-13T08:10:32.760Z,2.00
2023-02-13T08:13:04.250Z,2.30
2023-02-13T08:15:31.699Z,2.40
2023-02-13T08:17:59.062Z,2.50
2023-02-13T08:20:26.419Z,2.80
2023-02-13T08:22:53.673Z,2.80
2023-02-13T08:25:24.451Z,3.30
2023-02-13T08:27:51.814Z,3.40
2023-02-13T08:30:19.034Z,3.90
2023-02-13T08:32:54.183Z,3.90
2023-02-13T08:35:22.987Z,3.40
2023-02-13T08:37:50.331Z,2.70
2023-02-13T08:40:17.783Z,2.30
2023-02-13T08:42:45.019Z,2.20
2023-02-13T08:45:13.617Z,2.50
2023-02-13T08:47:40.975Z,3.10
2023-02-13T08:50:08.872Z,3.20
2023-02-13T08:52:36.367Z,3.20
2023-02-13T08:55:03.933Z,3.30
2023-02-13T08:57:32.119Z,3.40
2023-02-13T08:59:59.300Z,3.30
2023-02-13T09:02:26.642Z,2.90
2023-02-13T09:04:53.910Z,3.20
2023-02-13T09:07:21.358Z,3.20
2023-02-13T09:09:48.498Z,3.20
2023-02-13T09:12:15.705Z,3.20
2023-02-13T09:14:43.046Z,2.70
2023-02-13T09:17:10.484Z,3.00
2023-02-13T09:19:37.923Z,2.90
2023-02-13T09:22:05.210Z,3.00
2023-02-13T09:24:32.574Z,2.80
2023-02-13T09:27:02.276Z,3.20
2023-02-13T09:29:31.852Z,3.00
2023-02-13T09:32:00.016Z,2.50
2023-02-13T09:34:29.456Z,3.30
2023-02-13T09:36:57.724Z,3.50
2023-02-13T09:39:27.836Z,4.00
2023-02-13T09:41:56.948Z,3.70
2023-02-13T09:44:41.720Z,3.80
2023-02-13T09:47:35.680Z,3.90
2023-02-13T09:50:18.453Z,4.10
2023-02-13T09:52:48.074Z,4.10
2023-02-13T09:55:27.602Z,4.60
2023-02-13T09:58:16.530Z,4.60
2023-02-13T10:00:51.515Z,4.60
2023-02-13T10:03:30.029Z,4.80
2023-02-13T10:06:07.258Z,4.70
2023-02-13T10:08:44.607Z,4.70
2023-02-13T10:11:55.088Z,5.10
2023-02-13T10:14:46.221Z,6.30
2023-02-13T10:17:32.494Z,6.10
2023-02-13T10:20:30.533Z,7.30
2023-02-13T10:23:18.606Z,7.30
2023-02-13T10:26:01.119Z,7.30
2023-02-13T10:28:44.090Z,7.30
2023-02-13T10:31:19.878Z,7.00
2023-02-13T10:34:00.729Z,6.60
2023-02-13T10:36:43.546Z,6.60
2023-02-13T10:39:26.609Z,6.60
2023-02-13T10:42:20.336Z,7.30
2023-02-13T10:45:37.356Z,7.70
2023-02-13T10:48:25.387Z,7.90
2023-02-13T10:51:26.946Z,8.50
2023-02-13T10:54:22.093Z,8.00
2023-02-13T10:57:16.769Z,8.00
2023-02-13T11:00:14.686Z,8.00
2023-02-13T11:02:42.039Z,7.80
2023-02-13T11:05:30.466Z,8.10
2023-02-13T11:07:59.441Z,8.20
2023-02-13T11:10:27.839Z,8.80
2023-02-13T11:12:56.020Z,8.90
2023-02-13T11:15:31.515Z,9.00
2023-02-13T11:18:12.272Z,9.10
2023-02-13T11:20:58.492Z,9.30
2023-02-13T11:23:31.727Z,9.60
2023-02-13T11:26:10.915Z,9.40
2023-02-13T11:28:59.552Z,9.80
2023-02-13T11:31:33.850Z,10.10
2023-02-13T11:34:31.174Z,10.10
2023-02-13T11:37:16.289Z,10.60
2023-02-13T11:39:46.837Z,10.60
2023-02-13T11:42:29.068Z,10.90
2023-02-13T11:45:02.830Z,11.10
2023-02-13T11:47:36.848Z,11.20
2023-02-13T11:50:19.451Z,11.10
2023-02-13T11:53:07.654Z,11.10
2023-02-13T11:55:42.866Z,10.90
2023-02-13T11:58:16.402Z,10.70
2023-02-13T12:00:44.524Z,10.80
2023-02-13T12:03:32.504Z,10.40
2023-02-13T12:06:16.383Z,10.20
2023-02-13T12:08:48.477Z,9.90
2023-02-13T12:11:47.975Z,10.00
2023-02-13T12:14:44.795Z,10.00
2023-02-13T12:17:32.556Z,9.90
2023-02-13T12:20:01.520Z,10.10
2023-02-13T12:22:47.749Z,9.70
2023-02-13T12:25:49.168Z,9.60
2023-02-13T12:28:28.672Z,9.70
2023-02-13T12:31:43.480Z,9.60
2023-02-13T12:34:51.725Z,9.60
2023-02-13T12:38:16.722Z,9.70
2023-02-13T12:40:58.708Z,9.50
2023-02-13T12:44:03.329Z,9.20
2023-02-13T12:46:41.010Z,9.20
2023-02-13T12:49:36.787Z,9.20
2023-02-13T12:52:25.242Z,9.10
2023-02-13T12:55:45.904Z,9.20
2023-02-13T12:58:42.923Z,9.10
2023-02-13T13:01:49.499Z,9.10
2023-02-13T13:04:44.143Z,9.10
2023-02-13T13:07:24.599Z,9.00
2023-02-13T13:10:25.477Z,8.60
2023-02-13T13:13:35.666Z,8.80
2023-02-13T13:16:35.774Z,8.50
2023-02-13T13:19:39.106Z,8.50
2023-02-13T13:22:42.602Z,8.60
2023-02-13T13:25:40.418Z,8.50
2023-02-13T13:28:21.857Z,8.20
2023-02-13T13:30:50.434Z,8.30
2023-02-13T13:33:24.579Z,8.30
2023-02-13T13:36:21.444Z,8.40
2023-02-13T13:39:04.220Z,8.30
2023-02-13T13:42:25.850Z,8.20
2023-02-13T13:45:21.757Z,8.20
2023-02-13T13:48:12.555Z,8.10
2023-02-13T13:50:43.745Z,8.20
2023-02-13T13:53:21.389Z,8.20
2023-02-13T13:56:09.652Z,8.10
2023-02-13T13:58:45.857Z,8.00
2023-02-13T14:01:33.137Z,8.00
2023-02-13T14:04:04.291Z,7.90
2023-02-13T14:26:28.503Z,7.90
2023-02-13T14:30:10.619Z,7.90
2023-02-13T14:33:31.329Z,7.90
2023-02-13T14:36:48.524Z,7.90
2023-02-13T14:39:49.609Z,7.50
2023-02-13T14:42:46.292Z,7.60
2023-02-13T14:45:40.156Z,7.60
2023-02-13T14:48:14.338Z,7.40
2023-02-13T14:50:51.164Z,7.70
2023-02-13T14:53:30.538Z,7.60
2023-02-13T14:56:12.579Z,7.50
2023-02-13T14:58:52.958Z,7.60
2023-02-13T15:01:36.279Z,7.50
2023-02-13T15:04:18.972Z,7.20
2023-02-13T15:06:49.471Z,7.50
2023-02-13T15:09:30.406Z,7.40
2023-02-13T15:11:58.165Z,7.50
2023-02-13T15:14:35.574Z,7.40
2023-02-13T15:17:41.444Z,6.90
2023-02-13T15:20:29.480Z,6.90
2023-02-13T15:22:58.612Z,7.10
2023-02-13T15:25:39.314Z,6.80
2023-02-13T15:28:33.888Z,7.00
2023-02-13T15:31:26.747Z,6.90
2023-02-13T15:34:08.265Z,6.90
2023-02-13T15:37:03.232Z,6.90
2023-02-13T15:39:42.527Z,6.90
2023-02-13T15:57:17.825Z,6.40
2023-02-13T16:02:48.204Z,6.20
2023-02-13T16:05:38.910Z,6.00
2023-02-13T16:08:43.968Z,6.30
2023-02-13T16:11:32.887Z,6.50
2023-02-13T16:14:27.145Z,6.40
2023-02-13T16:17:00.492Z,6.20
2023-02-13T16:19:37.619Z,6.30
2023-02-13T16:22:34.514Z,6.30
2023-02-13T16:25:30.282Z,6.30
2023-02-13T16:28:24.141Z,6.10
2023-02-13T16:31:21.560Z,5.90
2023-02-13T16:33:48.990Z,5.80
2023-02-13T16:36:16.261Z,6.20
2023-02-13T16:38:52.754Z,5.80
2023-02-13T16:41:22.564Z,6.10
2023-02-13T16:44:06.200Z,5.70
2023-02-13T16:47:08.865Z,5.90
2023-02-13T16:49:58.109Z,5.70
2023-02-13T16:52:32.116Z,5.90
2023-02-13T16:55:03.448Z,5.70
2023-02-13T16:57:36.697Z,6.10
2023-02-13T17:00:50.099Z,6.00
2023-02-13T17:03:20.844Z,5.90
2023-02-13T17:06:04.087Z,5.90
2023-02-13T17:08:39.325Z,6.00
2023-02-13T17:11:19.307Z,5.70
2023-02-13T17:13:46.699Z,5.50
2023-02-13T17:16:14.049Z,5.50
2023-02-13T17:18:42.578Z,5.40
2023-02-13T17:21:09.860Z,5.60
2023-02-13T17:23:37.059Z,5.50
2023-02-13T17:26:07.682Z,5.50
2023-02-13T17:28:35.164Z,5.60
2023-02-13T17:31:14.816Z,5.40
2023-02-13T17:33:51.916Z,5.30
2023-02-13T17:36:21.773Z,5.60
2023-02-13T17:38:49.057Z,5.30
2023-02-13T17:41:16.885Z,5.20
2023-02-13T17:43:46.968Z,5.20
2023-02-13T17:46:19.838Z,5.30
2023-02-13T17:48:47.229Z,4.90
2023-02-13T17:51:17.289Z,5.10
2023-02-13T17:53:46.918Z,5.20
2023-02-13T17:56:23.831Z,5.10
2023-02-13T17:58:54.019Z,5.00
2023-02-13T18:01:22.546Z,5.20
2023-02-13T18:03:55.125Z,5.10
2023-02-13T18:06:22.296Z,5.00
2023-02-13T18:08:53.242Z,4.90
2023-02-13T18:11:23.082Z,4.90
2023-02-13T18:13:55.505Z,5.00
2023-02-13T18:16:25.498Z,4.90
2023-02-13T18:18:52.933Z,5.00
2023-02-13T18:21:23.654Z,5.00
2023-02-13T18:23:54.039Z,4.90
2023-02-13T18:26:21.298Z,4.80
2023-02-13T18:28:52.370Z,4.90
2023-02-13T18:31:22.557Z,4.60
2023-02-13T18:33:50.312Z,4.80
2023-02-13T18:36:20.915Z,4.90
2023-02-13T18:38:48.148Z,4.70
2023-02-13T18:41:15.599Z,4.80
2023-02-13T18:43:46.043Z,4.90
2023-02-13T18:46:14.074Z,4.40
2023-02-13T18:48:42.953Z,4.70
2023-02-13T18:51:10.592Z,4.70
2023-02-13T18:53:43.957Z,4.80
2023-02-13T18:56:42.988Z,4.70
2023-02-13T19:04:41.133Z,4.50
2023-02-13T19:07:14.316Z,4.40
2023-02-13T19:11:09.500Z,4.50
2023-02-13T19:13:49.407Z,4.40
2023-02-13T19:16:21.991Z,4.60
2023-02-13T19:19:20.504Z,4.40
2023-02-13T19:22:08.909Z,4.20
2023-02-13T19:24:36.251Z,4.30
2023-02-13T19:27:04.100Z,4.30
2023-02-13T19:29:31.724Z,4.20
2023-02-13T19:32:03.837Z,4.30
2023-02-13T19:34:38.679Z,4.10
2023-02-13T19:37:05.894Z,4.10
2023-02-13T19:39:35.917Z,4.10
2023-02-13T19:42:06.378Z,4.20
2023-02-13T19:44:33.838Z,4.10
2023-02-13T19:47:08.334Z,3.90
2023-02-13T19:49:37.916Z,4.10
2023-02-13T19:52:19.923Z,4.10
2023-02-13T19:55:21.198Z,4.10
2023-02-13T19:58:00.130Z,3.80
2023-02-13T20:00:46.370Z,3.70
2023-02-13T20:03:13.768Z,4.00
2023-02-13T20:05:42.036Z,4.10
2023-02-13T20:08:12.399Z,4.00
2023-02-13T20:10:46.418Z,4.00
2023-02-13T20:13:13.808Z,3.90
2023-02-13T20:16:01.174Z,4.20
2023-02-13T20:18:37.304Z,3.70
2023-02-13T20:21:13.726Z,4.20
2023-02-13T20:23:42.298Z,3.90
2023-02-13T20:26:14.779Z,4.10
2023-02-13T20:28:49.952Z,3.70
2023-02-13T20:31:30.127Z,4.00
2023-02-13T20:34:07.442Z,4.00
2023-02-13T20:36:35.015Z,4.00
2023-02-13T20:39:08.931Z,4.10
2023-02-13T20:41:38.227Z,4.00
2023-02-13T20:44:11.378Z,3.90
2023-02-13T20:46:40.310Z,3.40
2023-02-13T20:49:08.354Z,3.80
2023-02-13T20:51:36.145Z,3.60
2023-02-13T20:54:08.184Z,3.80
2023-02-13T20:56:37.717Z,3.70
2023-02-13T20:59:05.629Z,3.50
2023-02-13T21:01:41.526Z,3.60
2023-02-13T21:04:19.230Z,3.90
2023-02-13T21:06:48.168Z,3.60
2023-02-13T21:09:15.678Z,3.30
2023-02-13T21:11:46.549Z,3.70
2023-02-13T21:14:14.864Z,3.50
2023-02-13T21:16:43.345Z,3.80
2023-02-13T21:19:17.022Z,3.50
2023-02-13T21:21:48.639Z,3.30
2023-02-13T21:24:22.325Z,3.40
2023-02-13T21:26:55.624Z,3.80
2023-02-13T21:29:32.518Z,3.80
2023-02-13T21:32:10.559Z,3.60
2023-02-13T21:34:40.098Z,3.50
2023-02-13T21:37:09.636Z,3.60
2023-02-13T21:39:37.362Z,3.60
2023-02-13T21:42:04.785Z,4.00
2023-02-13T21:44:32.065Z,3.70
2023-02-13T21:46:59.439Z,3.80
2023-02-13T21:49:26.982Z,3.90
2023-02-13T21:51:54.352Z,3.90
2023-02-13T21:54:21.634Z,3.90
2023-02-13T21:56:51.547Z,3.70
2023-02-13T21:59:18.712Z,3.60
2023-02-13T22:02:19.735Z,3.90
2023-02-13T22:04:47.365Z,3.70
2023-02-13T22:07:14.637Z,3.70
2023-02-13T22:09:41.874Z,3.90
2023-02-13T22:12:09.137Z,3.50
2023-02-13T22:14:37.580Z,3.40
2023-02-13T22:17:04.907Z,3.40
2023-02-13T22:19:32.471Z,3.50
2023-02-13T22:21:59.699Z,3.50
2023-02-13T22:24:30.325Z,3.40
2023-02-13T22:26:57.514Z,3.40
2023-02-13T22:29:26.232Z,3.60
2023-02-13T22:31:53.597Z,3.00
2023-02-13T22:34:20.883Z,3.30
2023-02-13T22:36:48.048Z,3.50
2023-02-13T22:39:15.373Z,3.50
2023-02-13T22:41:45.746Z,3.50
2023-02-13T22:44:13.260Z,3.50
2023-02-13T22:46:40.455Z,3.50
2023-02-13T22:49:07.654Z,3.60
2023-02-13T22:51:37.146Z,3.60
2023-02-13T22:54:05.785Z,3.60
2023-02-13T22:56:33.985Z,3.70
2023-02-13T22:59:01.358Z,3.70
2023-02-13T23:01:29.274Z,3.60
2023-02-13T23:03:57.028Z,3.80
2023-02-13T23:06:25.799Z,3.70
2023-02-13T23:08:54.070Z,3.60
2023-02-13T23:11:58.835Z,3.60
2023-02-13T23:14:29.210Z,3.60
2023-02-13T23:17:14.596Z,3.70
2023-02-13T23:19:41.740Z,3.90
2023-02-13T23:22:08.952Z,3.70
2023-02-13T23:24:36.140Z,3.90
2023-02-13T23:27:03.200Z,3.90
2023-02-13T23:29:30.357Z,3.90
2023-02-13T23:31:57.660Z,3.40
2023-02-13T23:34:25.079Z,3.60
2023-02-13T23:36:52.197Z,3.50
2023-02-13T23:39:20.429Z,3.80
2023-02-13T23:41:50.096Z,3.70
2023-02-13T23:44:17.334Z,3.60
2023-02-13T23:46:44.831Z,3.50
2023-02-13T23:49:12.148Z,3.30
2023-02-13T23:51:39.404Z,3.70
2023-02-13T23:54:06.915Z,3.50
2023-02-13T23:56:34.048Z,3.70
2023-02-13T23:59:01.275Z,3.40
